KPSF/PSF METAR and TAF weather

Enter ICAO airport designator
Station Type Date Time Source
KPSF METAR 2019/04/25 01:54 UTC NOAA

KPSF 250154Z AUTO 34012KT 10SM OVC019 06/01 A2990 RMK AO2 SLP123 T00560006


Station Type Date Time Source
KPSF Decoded METAR 2019/04/25 01:54 UTC NOAA

PITTSFIELD MUNICIPAL AIRPORT , MA, United States (KPSF) 42-26N 073-17W 355M
Apr 24, 2019 - 09:54 PM EDT / 2019.04.25 0154 UTC
Wind: from the NNW (340 degrees) at 14 MPH (12 KT):0
Visibility: 10 mile(s):0
Sky conditions: overcast
Temperature: 42.1 F (5.6 C)
Dew Point: 33.1 F (0.6 C)
Relative Humidity: 70%
Pressure (altimeter): 29.9 in. Hg (1012 hPa)
ob: KPSF 250154Z AUTO 34012KT 10SM OVC019 06/01 A2990 RMK AO2 SLP123 T00560006
cycle: 2

Station Type Date Time Source
KPSF TAF 2019/04/25 02:24 UTC NOAA

KPSF 250211Z 2502/2524 32012KT P6SM SCT018 BKN025
TEMPO 2502/2504 BKN018
FM250600 30009KT P6SM SCT025
FM251900 22006KT P6SM SCT035

Example: see airport list